createdAt,value
2022-09-06T06:14:52.544Z,91.77
2022-09-06T06:17:55.639Z,90.33
2022-09-06T06:21:15.663Z,89.46
2022-09-06T06:24:18.699Z,87.41
2022-09-06T06:27:21.616Z,87.44
2022-09-06T06:30:25.356Z,86.19
2022-09-06T06:33:28.369Z,87.80
2022-09-06T06:36:33.982Z,86.28
2022-09-06T06:39:37.091Z,90.07
2022-09-06T06:42:40.066Z,84.99
2022-09-06T06:45:43.108Z,82.61
2022-09-06T06:48:49.471Z,82.41
2022-09-06T06:51:55.378Z,82.92
2022-09-06T06:54:58.238Z,85.50
2022-09-06T06:58:01.199Z,80.54
2022-09-06T07:01:04.377Z,81.55
2022-09-06T07:04:10.443Z,84.30
2022-09-06T07:10:36.049Z,79.59
2022-09-06T07:13:39.502Z,76.25
2022-09-06T07:16:42.727Z,77.48
2022-09-06T07:26:31.730Z,77.06
2022-09-06T07:29:34.949Z,76.03
2022-09-06T07:32:38.213Z,74.53
2022-09-06T07:35:41.737Z,74.09
2022-09-06T07:38:49.303Z,75.87
2022-09-06T07:41:52.250Z,73.49
2022-09-06T07:44:57.780Z,72.74
2022-09-06T07:48:00.507Z,74.21
2022-09-06T07:51:12.644Z,71.35
2022-09-06T07:54:31.380Z,70.81
2022-09-06T07:57:34.497Z,70.90
2022-09-06T08:00:38.558Z,69.58
2022-09-06T08:03:42.066Z,72.45
2022-09-06T08:10:13.175Z,71.25
2022-09-06T08:13:16.599Z,69.94
2022-09-06T08:16:20.252Z,66.04
2022-09-06T08:19:23.370Z,66.08
2022-09-06T08:22:26.354Z,68.13
2022-09-06T08:25:29.050Z,67.55
2022-09-06T08:28:32.005Z,66.25
2022-09-06T08:31:37.512Z,63.45
2022-09-06T08:34:40.462Z,68.12
2022-09-06T08:37:43.122Z,66.89
2022-09-06T08:40:46.045Z,64.52
2022-09-06T08:47:28.194Z,65.57
2022-09-06T08:50:31.771Z,62.25
2022-09-06T08:53:43.017Z,66.94
2022-09-06T08:57:01.928Z,60.00
2022-09-06T09:00:11.082Z,64.12
2022-09-06T09:03:22.945Z,59.61
2022-09-06T09:06:27.576Z,59.45
2022-09-06T09:09:32.965Z,59.61
2022-09-06T09:12:44.266Z,61.57
2022-09-06T09:15:46.958Z,60.64
2022-09-06T09:18:53.781Z,58.70
2022-09-06T09:21:56.743Z,59.37
2022-09-06T09:25:01.633Z,60.63
2022-09-06T09:28:20.383Z,54.29
2022-09-06T09:31:39.523Z,53.58
2022-09-06T09:34:42.266Z,56.98
2022-09-06T09:37:46.957Z,56.46
2022-09-06T09:40:53.695Z,56.97
2022-09-06T09:44:04.387Z,56.61
2022-09-06T09:47:28.672Z,58.20
2022-09-06T09:50:35.355Z,56.96
2022-09-06T09:53:50.253Z,54.58
2022-09-06T09:56:53.566Z,58.64
2022-09-06T09:59:58.871Z,56.54
2022-09-06T10:03:15.253Z,54.48
2022-09-06T10:10:01.165Z,53.10
2022-09-06T10:13:16.811Z,55.22
2022-09-06T10:16:44.859Z,56.06
2022-09-06T10:19:48.922Z,54.54
2022-09-06T10:23:10.324Z,59.86
2022-09-06T10:26:32.571Z,55.12
2022-09-06T10:29:53.004Z,53.81
2022-09-06T10:33:11.109Z,53.76
2022-09-06T10:36:20.767Z,54.48
2022-09-06T10:39:42.436Z,57.15
2022-09-06T10:42:48.074Z,53.85
2022-09-06T10:46:11.546Z,53.96
2022-09-06T10:49:18.943Z,52.68
2022-09-06T10:52:32.905Z,54.03
2022-09-06T10:56:03.766Z,54.77
2022-09-06T10:59:43.487Z,54.41
2022-09-06T11:06:17.278Z,53.96
2022-09-06T11:09:38.546Z,52.94
2022-09-06T11:13:03.289Z,52.11
2022-09-06T11:16:31.343Z,52.41
2022-09-06T11:19:42.284Z,51.63
2022-09-06T11:22:54.093Z,51.52
2022-09-06T11:26:37.891Z,52.51
2022-09-06T11:29:47.998Z,49.75
2022-09-06T11:33:05.117Z,54.33
2022-09-06T11:36:39.922Z,54.06
2022-09-06T11:43:29.959Z,56.50
2022-09-06T11:46:35.958Z,56.64
2022-09-06T11:49:40.095Z,54.77
2022-09-06T11:53:18.657Z,51.94
2022-09-06T11:57:09.878Z,53.64
2022-09-06T12:00:24.346Z,53.61
2022-09-06T12:04:06.025Z,51.91
2022-09-06T12:07:15.898Z,53.21
2022-09-06T12:10:39.461Z,52.94
2022-09-06T12:13:45.243Z,54.01
2022-09-06T12:17:08.989Z,57.06
2022-09-06T12:20:12.005Z,51.89
2022-09-06T12:23:38.451Z,52.32
2022-09-06T12:26:55.602Z,51.75
2022-09-06T12:30:09.331Z,53.31
2022-09-06T12:33:36.873Z,51.62
2022-09-06T12:36:53.546Z,51.55
2022-09-06T12:39:58.842Z,49.63
2022-09-06T12:43:04.279Z,52.91
2022-09-06T12:46:08.054Z,53.11
2022-09-06T12:49:15.138Z,54.04
2022-09-06T12:52:33.614Z,52.68
2022-09-06T12:55:38.617Z,53.59
2022-09-06T12:58:41.471Z,51.99
2022-09-06T13:02:14.827Z,52.99
2022-09-06T13:05:20.383Z,50.91
2022-09-06T13:08:35.250Z,51.30
2022-09-06T13:11:42.673Z,51.99
2022-09-06T13:14:45.762Z,49.48
2022-09-06T13:17:48.849Z,48.67
2022-09-06T13:21:26.144Z,48.24
2022-09-06T13:24:35.429Z,47.12
2022-09-06T13:27:46.038Z,47.38
2022-09-06T13:31:14.129Z,47.63
2022-09-06T13:34:33.703Z,47.52
2022-09-06T13:37:39.506Z,51.21
2022-09-06T13:41:09.698Z,47.55
2022-09-06T13:44:15.857Z,47.02
2022-09-06T13:47:19.320Z,48.34
2022-09-06T13:50:27.939Z,47.31
2022-09-06T13:53:31.886Z,47.91
2022-09-06T13:56:35.256Z,49.04
2022-09-06T13:59:38.505Z,47.75
2022-09-06T14:02:42.075Z,45.02
2022-09-06T14:05:45.276Z,45.46
2022-09-06T14:09:09.190Z,43.66
2022-09-06T14:12:12.717Z,45.39
2022-09-06T14:15:15.482Z,45.78
2022-09-06T14:18:18.925Z,44.53
2022-09-06T14:21:21.828Z,45.11
2022-09-06T14:24:24.824Z,45.97
2022-09-06T14:27:27.587Z,44.54
2022-09-06T14:30:31.414Z,45.59
2022-09-06T14:33:34.092Z,45.61
2022-09-06T14:36:37.641Z,46.23
2022-09-06T14:39:40.461Z,45.65
2022-09-06T14:42:59.811Z,47.87
2022-09-06T14:46:08.014Z,48.13
2022-09-06T14:49:11.241Z,47.79
2022-09-06T14:52:13.871Z,46.38
2022-09-06T14:55:17.073Z,45.46
2022-09-06T14:58:19.928Z,44.66
2022-09-06T15:01:25.873Z,45.94
2022-09-06T15:04:29.692Z,44.52
2022-09-06T15:07:32.898Z,45.94
2022-09-06T15:10:35.800Z,44.14
2022-09-06T15:13:42.988Z,46.15
2022-09-06T15:16:49.850Z,44.71
2022-09-06T15:19:54.414Z,43.80
2022-09-06T15:23:15.174Z,43.77
2022-09-06T15:26:21.628Z,43.66
2022-09-06T15:29:27.324Z,46.28
2022-09-06T15:32:30.528Z,44.94
2022-09-06T15:35:33.582Z,45.52
2022-09-06T15:38:41.269Z,45.82
2022-09-06T15:41:44.466Z,46.15
2022-09-06T15:44:47.646Z,46.62
2022-09-06T15:47:51.002Z,47.00
2022-09-06T15:50:54.113Z,46.77
2022-09-06T15:53:59.762Z,46.26
2022-09-06T15:57:03.833Z,46.72
2022-09-06T16:00:06.977Z,46.41
2022-09-06T16:03:10.022Z,47.29
2022-09-06T16:06:31.430Z,46.68
2022-09-06T16:09:34.551Z,54.11
2022-09-06T16:12:39.254Z,53.64
2022-09-06T16:15:42.213Z,55.90
2022-09-06T16:18:48.954Z,60.02
2022-09-06T16:21:53.410Z,60.33
2022-09-06T16:24:56.057Z,61.95
2022-09-06T16:27:59.191Z,60.21
2022-09-06T16:31:08.595Z,60.32
2022-09-06T16:52:55.018Z,77.28
2022-09-06T16:56:03.330Z,75.34
2022-09-06T16:59:08.602Z,75.44
2022-09-06T17:02:12.654Z,86.15
2022-09-06T17:05:15.473Z,98.56
2022-09-06T17:08:19.818Z,99.27
2022-09-06T17:11:22.651Z,100.00
2022-09-06T17:14:26.284Z,100.00
2022-09-06T17:17:28.898Z,100.00
2022-09-06T17:20:32.442Z,100.00
2022-09-06T17:23:36.833Z,100.00
2022-09-06T17:26:40.264Z,100.00
2022-09-06T17:29:43.026Z,100.00
2022-09-06T17:32:46.272Z,100.00
2022-09-06T17:35:49.058Z,100.00
2022-09-06T17:38:53.952Z,100.00
2022-09-06T17:41:57.124Z,100.00
2022-09-06T17:45:01.116Z,100.00
2022-09-06T17:48:04.178Z,100.00
2022-09-06T17:51:08.416Z,100.00
2022-09-06T17:54:11.283Z,100.00
2022-09-06T17:57:14.347Z,100.00
2022-09-06T18:00:41.180Z,100.00
2022-09-06T18:03:44.471Z,100.00
2022-09-06T18:06:47.656Z,100.00
2022-09-06T18:09:51.153Z,100.00
2022-09-06T18:12:53.876Z,100.00
2022-09-06T18:15:56.818Z,100.00
2022-09-06T18:19:01.645Z,100.00
2022-09-06T18:22:04.851Z,100.00
2022-09-06T18:25:08.908Z,100.00
2022-09-06T18:28:11.959Z,100.00
2022-09-06T18:31:19.617Z,100.00
2022-09-06T18:34:22.884Z,100.00
2022-09-06T18:37:26.444Z,100.00
2022-09-06T18:40:29.447Z,100.00
2022-09-06T18:43:36.368Z,100.00
2022-09-06T18:46:39.416Z,100.00
2022-09-06T18:49:44.309Z,100.00
2022-09-06T18:52:47.551Z,100.00
2022-09-06T18:55:53.831Z,100.00
2022-09-06T18:59:11.414Z,100.00
2022-09-06T19:02:14.508Z,100.00
2022-09-06T19:05:17.556Z,100.00
2022-09-06T19:08:20.990Z,100.00
2022-09-06T19:11:24.245Z,100.00
2022-09-06T19:14:27.034Z,100.00
2022-09-06T19:17:29.999Z,100.00
2022-09-06T19:20:32.752Z,100.00
2022-09-06T19:23:39.361Z,100.00
2022-09-06T19:26:43.995Z,100.00
2022-09-06T19:29:47.094Z,100.00
2022-09-06T19:32:50.167Z,100.00
2022-09-06T19:36:10.554Z,100.00
2022-09-06T19:39:16.021Z,100.00
2022-09-06T19:42:19.261Z,100.00
2022-09-06T19:45:22.166Z,100.00
2022-09-06T19:48:28.441Z,100.00
2022-09-06T19:51:33.125Z,100.00
2022-09-06T19:54:39.587Z,100.00
2022-09-06T19:57:42.417Z,100.00
2022-09-06T20:00:46.391Z,100.00
2022-09-06T20:03:50.288Z,100.00
2022-09-06T20:06:53.454Z,100.00
2022-09-06T20:09:57.003Z,100.00
2022-09-06T20:12:59.849Z,100.00
2022-09-06T20:16:04.465Z,100.00
2022-09-06T20:19:07.197Z,100.00
2022-09-06T20:22:11.468Z,100.00
2022-09-06T20:25:14.905Z,100.00
2022-09-06T20:28:27.795Z,100.00
2022-09-06T20:31:32.350Z,100.00
2022-09-06T20:34:35.608Z,100.00
2022-09-06T20:37:38.881Z,100.00
2022-09-06T20:40:41.875Z,100.00
2022-09-06T20:43:45.345Z,100.00
2022-09-06T20:46:48.375Z,100.00
2022-09-06T20:49:51.290Z,100.00
2022-09-06T20:52:54.255Z,100.00
2022-09-06T20:55:59.106Z,100.00
2022-09-06T20:59:04.927Z,100.00
2022-09-06T21:02:07.968Z,100.00
2022-09-06T21:05:10.924Z,100.00
2022-09-06T21:08:13.858Z,100.00
2022-09-06T21:11:17.886Z,100.00
2022-09-06T21:14:20.576Z,100.00
2022-09-06T21:17:23.550Z,100.00
2022-09-06T21:20:26.605Z,100.00
2022-09-06T21:23:32.890Z,100.00
2022-09-06T21:26:35.814Z,100.00
2022-09-06T21:29:38.831Z,100.00
2022-09-06T21:32:41.591Z,100.00
2022-09-06T21:35:44.578Z,100.00
2022-09-06T21:38:49.308Z,100.00
